sensor_id;sensor_type;location;lat;lon;timestamp;pressure;altitude;pressure_sealevel;temperature
27826;BMP280;15077;49.704;9.908;2022-07-23T00:00:19;98129.88;;;29.36
27826;BMP280;15077;49.704;9.908;2022-07-23T00:02:46;98119.13;;;29.31
27826;BMP280;15077;49.704;9.908;2022-07-23T00:05:11;98115.09;;;29.28
27826;BMP280;15077;49.704;9.908;2022-07-23T00:07:38;98119.03;;;29.24
27826;BMP280;15077;49.704;9.908;2022-07-23T00:10:04;98118.56;;;29.21
27826;BMP280;15077;49.704;9.908;2022-07-23T00:12:30;98119.88;;;29.17
27826;BMP280;15077;49.704;9.908;2022-07-23T00:14:56;98099.38;;;29.14
27826;BMP280;15077;49.704;9.908;2022-07-23T00:17:22;98099.72;;;29.11
27826;BMP280;15077;49.704;9.908;2022-07-23T00:19:48;98095.66;;;29.08
27826;BMP280;15077;49.704;9.908;2022-07-23T00:22:14;98098.63;;;29.05
27826;BMP280;15077;49.704;9.908;2022-07-23T00:24:39;98102.41;;;29.03
27826;BMP280;15077;49.704;9.908;2022-07-23T00:27:05;98095.91;;;28.99
27826;BMP280;15077;49.704;9.908;2022-07-23T00:29:31;98102.28;;;28.96
27826;BMP280;15077;49.704;9.908;2022-07-23T00:31:57;98096.59;;;28.93
27826;BMP280;15077;49.704;9.908;2022-07-23T00:34:23;98095.94;;;28.91
27826;BMP280;15077;49.704;9.908;2022-07-23T00:36:49;98081.94;;;28.92
27826;BMP280;15077;49.704;9.908;2022-07-23T00:39:15;98078.69;;;28.90
27826;BMP280;15077;49.704;9.908;2022-07-23T00:41:40;98080.03;;;28.86
27826;BMP280;15077;49.704;9.908;2022-07-23T00:44:20;98066.53;;;28.83
27826;BMP280;15077;49.704;9.908;2022-07-23T00:46:51;98057.25;;;28.80
27826;BMP280;15077;49.704;9.908;2022-07-23T00:49:29;98059.59;;;28.75
27826;BMP280;15077;49.704;9.908;2022-07-23T00:51:56;98057.94;;;28.74
27826;BMP280;15077;49.704;9.908;2022-07-23T00:54:25;98051.28;;;28.72
27826;BMP280;15077;49.704;9.908;2022-07-23T00:56:51;98034.19;;;28.69
27826;BMP280;15077;49.704;9.908;2022-07-23T00:59:17;98035.31;;;28.67
27826;BMP280;15077;49.704;9.908;2022-07-23T01:01:43;98018.22;;;28.64
27826;BMP280;15077;49.704;9.908;2022-07-23T01:04:11;98016.97;;;28.60
27826;BMP280;15077;49.704;9.908;2022-07-23T01:06:38;98015.31;;;28.59
27826;BMP280;15077;49.704;9.908;2022-07-23T01:09:07;98020.91;;;28.56
27826;BMP280;15077;49.704;9.908;2022-07-23T01:11:35;98037.69;;;28.54
27826;BMP280;15077;49.704;9.908;2022-07-23T01:14:14;98026.81;;;28.50
27826;BMP280;15077;49.704;9.908;2022-07-23T01:16:41;98015.09;;;28.46
27826;BMP280;15077;49.704;9.908;2022-07-23T01:19:08;98027.50;;;28.44
27826;BMP280;15077;49.704;9.908;2022-07-23T01:21:39;98021.63;;;28.42
27826;BMP280;15077;49.704;9.908;2022-07-23T01:24:06;98023.78;;;28.39
27826;BMP280;15077;49.704;9.908;2022-07-23T01:26:32;98032.94;;;28.35
27826;BMP280;15077;49.704;9.908;2022-07-23T01:28:58;98032.47;;;28.32
27826;BMP280;15077;49.704;9.908;2022-07-23T01:31:24;98036.06;;;28.31
27826;BMP280;15077;49.704;9.908;2022-07-23T01:33:50;98032.81;;;28.29
27826;BMP280;15077;49.704;9.908;2022-07-23T01:36:16;98040.00;;;28.27
27826;BMP280;15077;49.704;9.908;2022-07-23T01:38:42;98047.16;;;28.25
27826;BMP280;15077;49.704;9.908;2022-07-23T01:41:07;98049.31;;;28.21
27826;BMP280;15077;49.704;9.908;2022-07-23T01:43:33;98048.53;;;28.21
27826;BMP280;15077;49.704;9.908;2022-07-23T01:45:59;98054.06;;;28.18
27826;BMP280;15077;49.704;9.908;2022-07-23T01:48:26;98055.06;;;28.17
27826;BMP280;15077;49.704;9.908;2022-07-23T01:50:51;98045.78;;;28.14
27826;BMP280;15077;49.704;9.908;2022-07-23T01:53:17;98049.03;;;28.16
27826;BMP280;15077;49.704;9.908;2022-07-23T01:55:44;98051.66;;;28.16
27826;BMP280;15077;49.704;9.908;2022-07-23T01:58:10;98050.53;;;28.11
27826;BMP280;15077;49.704;9.908;2022-07-23T02:00:36;98050.00;;;28.07
27826;BMP280;15077;49.704;9.908;2022-07-23T02:03:02;98046.94;;;28.04
27826;BMP280;15077;49.704;9.908;2022-07-23T02:05:28;98055.09;;;28.01
27826;BMP280;15077;49.704;9.908;2022-07-23T02:07:55;98055.44;;;27.98
27826;BMP280;15077;49.704;9.908;2022-07-23T02:10:22;98049.75;;;27.94
27826;BMP280;15077;49.704;9.908;2022-07-23T02:12:48;98055.16;;;27.93
27826;BMP280;15077;49.704;9.908;2022-07-23T02:15:13;98047.50;;;27.91
27826;BMP280;15077;49.704;9.908;2022-07-23T02:17:40;98048.00;;;27.87
27826;BMP280;15077;49.704;9.908;2022-07-23T02:20:08;98039.53;;;27.85
27826;BMP280;15077;49.704;9.908;2022-07-23T02:22:35;98029.44;;;27.82
27826;BMP280;15077;49.704;9.908;2022-07-23T02:25:06;98032.88;;;27.83
27826;BMP280;15077;49.704;9.908;2022-07-23T02:27:32;98014.16;;;27.79
27826;BMP280;15077;49.704;9.908;2022-07-23T02:29:58;98010.94;;;27.77
27826;BMP280;15077;49.704;9.908;2022-07-23T02:32:24;98013.72;;;27.76
27826;BMP280;15077;49.704;9.908;2022-07-23T02:34:51;98026.09;;;27.74
27826;BMP280;15077;49.704;9.908;2022-07-23T02:37:17;98029.66;;;27.73
27826;BMP280;15077;49.704;9.908;2022-07-23T02:39:43;98026.78;;;27.68
27826;BMP280;15077;49.704;9.908;2022-07-23T02:42:09;98029.53;;;27.66
27826;BMP280;15077;49.704;9.908;2022-07-23T02:44:35;98028.25;;;27.62
27826;BMP280;15077;49.704;9.908;2022-07-23T02:47:02;98019.78;;;27.60
27826;BMP280;15077;49.704;9.908;2022-07-23T02:49:27;98014.91;;;27.57
27826;BMP280;15077;49.704;9.908;2022-07-23T02:51:53;98011.66;;;27.55
27826;BMP280;15077;49.704;9.908;2022-07-23T02:54:19;98019.81;;;27.52
27826;BMP280;15077;49.704;9.908;2022-07-23T02:56:45;98019.19;;;27.50
27826;BMP280;15077;49.704;9.908;2022-07-23T02:59:11;98017.84;;;27.46
27826;BMP280;15077;49.704;9.908;2022-07-23T03:01:37;98025.03;;;27.44
27826;BMP280;15077;49.704;9.908;2022-07-23T03:04:03;98035.78;;;27.41
27826;BMP280;15077;49.704;9.908;2022-07-23T03:06:29;98048.13;;;27.39
27826;BMP280;15077;49.704;9.908;2022-07-23T03:08:55;98046.69;;;27.37
27826;BMP280;15077;49.704;9.908;2022-07-23T03:11:21;98040.34;;;27.32
27826;BMP280;15077;49.704;9.908;2022-07-23T03:13:49;98037.13;;;27.30
27826;BMP280;15077;49.704;9.908;2022-07-23T03:16:15;98042.66;;;27.27
27826;BMP280;15077;49.704;9.908;2022-07-23T03:18:41;98035.97;;;27.24
27826;BMP280;15077;49.704;9.908;2022-07-23T03:21:07;98040.72;;;27.21
27826;BMP280;15077;49.704;9.908;2022-07-23T03:23:33;98041.19;;;27.16
27826;BMP280;15077;49.704;9.908;2022-07-23T03:25:59;98046.72;;;27.13
27826;BMP280;15077;49.704;9.908;2022-07-23T03:28:24;98046.25;;;27.10
27826;BMP280;15077;49.704;9.908;2022-07-23T03:30:50;98039.72;;;27.06
27826;BMP280;15077;49.704;9.908;2022-07-23T03:33:19;98045.09;;;27.04
27826;BMP280;15077;49.704;9.908;2022-07-23T03:35:46;98044.00;;;26.99
27826;BMP280;15077;49.704;9.908;2022-07-23T03:38:12;98032.28;;;26.95
27826;BMP280;15077;49.704;9.908;2022-07-23T03:40:38;98043.00;;;26.92
27826;BMP280;15077;49.704;9.908;2022-07-23T03:43:04;98048.03;;;26.86
27826;BMP280;15077;49.704;9.908;2022-07-23T03:45:32;98054.69;;;26.80
27826;BMP280;15077;49.704;9.908;2022-07-23T03:47:58;98053.72;;;26.73
27826;BMP280;15077;49.704;9.908;2022-07-23T03:50:24;98049.47;;;26.64
27826;BMP280;15077;49.704;9.908;2022-07-23T03:52:50;98049.66;;;26.55
27826;BMP280;15077;49.704;9.908;2022-07-23T03:55:16;98048.50;;;26.41
27826;BMP280;15077;49.704;9.908;2022-07-23T03:57:42;98056.25;;;26.34
27826;BMP280;15077;49.704;9.908;2022-07-23T04:00:10;98053.63;;;26.26
27826;BMP280;15077;49.704;9.908;2022-07-23T04:02:37;98066.59;;;26.18
27826;BMP280;15077;49.704;9.908;2022-07-23T04:05:04;98070.81;;;26.11
27826;BMP280;15077;49.704;9.908;2022-07-23T04:07:30;98072.25;;;26.05
27826;BMP280;15077;49.704;9.908;2022-07-23T04:09:56;98066.56;;;26.02
27826;BMP280;15077;49.704;9.908;2022-07-23T04:12:23;98057.28;;;25.99
27826;BMP280;15077;49.704;9.908;2022-07-23T04:14:49;98056.50;;;25.99
27826;BMP280;15077;49.704;9.908;2022-07-23T04:17:15;98060.69;;;26.00
27826;BMP280;15077;49.704;9.908;2022-07-23T04:19:41;98062.97;;;26.03
27826;BMP280;15077;49.704;9.908;2022-07-23T04:22:10;98063.66;;;26.05
27826;BMP280;15077;49.704;9.908;2022-07-23T04:24:37;98072.72;;;26.09
27826;BMP280;15077;49.704;9.908;2022-07-23T04:27:04;98075.19;;;26.10
27826;BMP280;15077;49.704;9.908;2022-07-23T04:29:30;98075.84;;;26.12
27826;BMP280;15077;49.704;9.908;2022-07-23T04:31:55;98073.09;;;26.14
27826;BMP280;15077;49.704;9.908;2022-07-23T04:34:21;98092.56;;;26.18
27826;BMP280;15077;49.704;9.908;2022-07-23T04:36:47;98071.78;;;26.18
27826;BMP280;15077;49.704;9.908;2022-07-23T04:39:14;98081.22;;;26.19
27826;BMP280;15077;49.704;9.908;2022-07-23T04:41:40;98081.84;;;26.21
27826;BMP280;15077;49.704;9.908;2022-07-23T04:44:05;98083.50;;;26.22
27826;BMP280;15077;49.704;9.908;2022-07-23T04:46:31;98083.50;;;26.22
27826;BMP280;15077;49.704;9.908;2022-07-23T04:48:57;98096.16;;;26.25
27826;BMP280;15077;49.704;9.908;2022-07-23T04:51:24;98101.22;;;26.26
27826;BMP280;15077;49.704;9.908;2022-07-23T04:53:50;98102.03;;;26.27
27826;BMP280;15077;49.704;9.908;2022-07-23T04:56:17;98106.25;;;26.28
27826;BMP280;15077;49.704;9.908;2022-07-23T04:58:42;98112.94;;;26.30
27826;BMP280;15077;49.704;9.908;2022-07-23T05:01:08;98115.38;;;26.32
27826;BMP280;15077;49.704;9.908;2022-07-23T05:03:34;98110.19;;;26.32
27826;BMP280;15077;49.704;9.908;2022-07-23T05:06:01;98123.84;;;26.34
27826;BMP280;15077;49.704;9.908;2022-07-23T05:08:28;98132.31;;;26.36
27826;BMP280;15077;49.704;9.908;2022-07-23T05:10:54;98152.09;;;26.37
27826;BMP280;15077;49.704;9.908;2022-07-23T05:13:20;98152.25;;;26.35
27826;BMP280;15077;49.704;9.908;2022-07-23T05:15:46;98161.69;;;26.36
27826;BMP280;15077;49.704;9.908;2022-07-23T05:18:13;98151.47;;;26.35
27826;BMP280;15077;49.704;9.908;2022-07-23T05:20:38;98152.25;;;26.35
27826;BMP280;15077;49.704;9.908;2022-07-23T05:23:04;98147.22;;;26.34
27826;BMP280;15077;49.704;9.908;2022-07-23T05:25:30;98149.03;;;26.33
27826;BMP280;15077;49.704;9.908;2022-07-23T05:27:56;98169.00;;;26.33
27826;BMP280;15077;49.704;9.908;2022-07-23T05:30:22;98183.91;;;26.31
27826;BMP280;15077;49.704;9.908;2022-07-23T05:32:47;98180.50;;;26.30
27826;BMP280;15077;49.704;9.908;2022-07-23T05:35:13;98178.06;;;26.29
27826;BMP280;15077;49.704;9.908;2022-07-23T05:37:39;98180.00;;;26.27
27826;BMP280;15077;49.704;9.908;2022-07-23T05:40:08;98185.19;;;26.27
27826;BMP280;15077;49.704;9.908;2022-07-23T05:42:36;98179.31;;;26.25
27826;BMP280;15077;49.704;9.908;2022-07-23T05:45:04;98177.53;;;26.25
27826;BMP280;15077;49.704;9.908;2022-07-23T05:47:48;98189.72;;;26.25
27826;BMP280;15077;49.704;9.908;2022-07-23T05:50:15;98186.00;;;26.27
27826;BMP280;15077;49.704;9.908;2022-07-23T05:52:42;98198.06;;;26.28
27826;BMP280;15077;49.704;9.908;2022-07-23T05:55:11;98201.31;;;26.30
27826;BMP280;15077;49.704;9.908;2022-07-23T05:57:38;98194.47;;;26.29
27826;BMP280;15077;49.704;9.908;2022-07-23T06:00:06;98192.72;;;26.30
27826;BMP280;15077;49.704;9.908;2022-07-23T06:02:32;98205.69;;;26.30
27826;BMP280;15077;49.704;9.908;2022-07-23T06:04:58;98198.88;;;26.29
27826;BMP280;15077;49.704;9.908;2022-07-23T06:07:24;98204.34;;;26.26
27826;BMP280;15077;49.704;9.908;2022-07-23T06:09:51;98213.25;;;26.23
27826;BMP280;15077;49.704;9.908;2022-07-23T06:12:18;98220.88;;;26.17
27826;BMP280;15077;49.704;9.908;2022-07-23T06:14:44;98226.53;;;26.12
27826;BMP280;15077;49.704;9.908;2022-07-23T06:17:10;98216.59;;;26.08
27826;BMP280;15077;49.704;9.908;2022-07-23T06:19:36;98233.94;;;26.07
27826;BMP280;15077;49.704;9.908;2022-07-23T06:22:03;98237.69;;;26.05
27826;BMP280;15077;49.704;9.908;2022-07-23T06:24:29;98239.59;;;26.03
27826;BMP280;15077;49.704;9.908;2022-07-23T06:26:55;98233.59;;;26.02
27826;BMP280;15077;49.704;9.908;2022-07-23T06:29:20;98231.66;;;26.04
27826;BMP280;15077;49.704;9.908;2022-07-23T06:31:46;98246.13;;;26.07
27826;BMP280;15077;49.704;9.908;2022-07-23T06:34:13;98257.84;;;26.11
27826;BMP280;15077;49.704;9.908;2022-07-23T06:36:39;98261.09;;;26.13
27826;BMP280;15077;49.704;9.908;2022-07-23T06:39:05;98261.75;;;26.15
27826;BMP280;15077;49.704;9.908;2022-07-23T06:41:30;98261.59;;;26.16
27826;BMP280;15077;49.704;9.908;2022-07-23T06:43:56;98264.88;;;26.18
27826;BMP280;15077;49.704;9.908;2022-07-23T06:46:22;98271.84;;;26.18
27826;BMP280;15077;49.704;9.908;2022-07-23T06:48:48;98272.66;;;26.18
27826;BMP280;15077;49.704;9.908;2022-07-23T06:51:13;98265.69;;;26.19
27826;BMP280;15077;49.704;9.908;2022-07-23T06:53:39;98262.94;;;26.20
27826;BMP280;15077;49.704;9.908;2022-07-23T06:56:05;98258.69;;;26.19
27826;BMP280;15077;49.704;9.908;2022-07-23T06:58:31;98274.44;;;26.18
27826;BMP280;15077;49.704;9.908;2022-07-23T07:00:56;98265.03;;;26.17
27826;BMP280;15077;49.704;9.908;2022-07-23T07:03:22;98265.19;;;26.15
27826;BMP280;15077;49.704;9.908;2022-07-23T07:05:48;98273.78;;;26.16
27826;BMP280;15077;49.704;9.908;2022-07-23T07:08:16;98268.59;;;26.16
27826;BMP280;15077;49.704;9.908;2022-07-23T07:10:42;98260.00;;;26.15
27826;BMP280;15077;49.704;9.908;2022-07-23T07:13:08;98261.59;;;26.16
27826;BMP280;15077;49.704;9.908;2022-07-23T07:15:33;98259.00;;;26.16
27826;BMP280;15077;49.704;9.908;2022-07-23T07:17:59;98255.44;;;26.17
27826;BMP280;15077;49.704;9.908;2022-07-23T07:20:25;98254.47;;;26.18
27826;BMP280;15077;49.704;9.908;2022-07-23T07:22:52;98253.34;;;26.21
27826;BMP280;15077;49.704;9.908;2022-07-23T07:25:18;98248.66;;;26.24
27826;BMP280;15077;49.704;9.908;2022-07-23T07:27:43;98251.91;;;26.26
27826;BMP280;15077;49.704;9.908;2022-07-23T07:30:11;98259.28;;;26.31
27826;BMP280;15077;49.704;9.908;2022-07-23T07:32:38;98268.56;;;26.33
27826;BMP280;15077;49.704;9.908;2022-07-23T07:35:05;98269.88;;;26.37
27826;BMP280;15077;49.704;9.908;2022-07-23T07:37:31;98260.78;;;26.41
27826;BMP280;15077;49.704;9.908;2022-07-23T07:39:58;98266.34;;;26.46
27826;BMP280;15077;49.704;9.908;2022-07-23T07:42:23;98274.66;;;26.49
27826;BMP280;15077;49.704;9.908;2022-07-23T07:44:49;98273.53;;;26.52
27826;BMP280;15077;49.704;9.908;2022-07-23T07:47:15;98260.06;;;26.56
27826;BMP280;15077;49.704;9.908;2022-07-23T07:49:42;98270.78;;;26.61
27826;BMP280;15077;49.704;9.908;2022-07-23T07:52:08;98274.41;;;26.68
27826;BMP280;15077;49.704;9.908;2022-07-23T07:54:34;98285.81;;;26.75
27826;BMP280;15077;49.704;9.908;2022-07-23T07:57:00;98304.34;;;26.80
27826;BMP280;15077;49.704;9.908;2022-07-23T07:59:26;98305.69;;;26.84
27826;BMP280;15077;49.704;9.908;2022-07-23T08:01:52;98300.81;;;26.89
27826;BMP280;15077;49.704;9.908;2022-07-23T08:04:18;98295.97;;;26.94
27826;BMP280;15077;49.704;9.908;2022-07-23T08:06:44;98300.53;;;27.00
27826;BMP280;15077;49.704;9.908;2022-07-23T08:09:10;98311.78;;;27.08
27826;BMP280;15077;49.704;9.908;2022-07-23T08:11:36;98313.91;;;27.13
27826;BMP280;15077;49.704;9.908;2022-07-23T08:14:02;98314.25;;;27.18
27826;BMP280;15077;49.704;9.908;2022-07-23T08:16:28;98331.19;;;27.22
27826;BMP280;15077;49.704;9.908;2022-07-23T08:18:53;98332.66;;;27.24
27826;BMP280;15077;49.704;9.908;2022-07-23T08:21:20;98331.38;;;27.28
27826;BMP280;15077;49.704;9.908;2022-07-23T08:23:46;98332.97;;;27.29
27826;BMP280;15077;49.704;9.908;2022-07-23T08:26:11;98333.66;;;27.31
27826;BMP280;15077;49.704;9.908;2022-07-23T08:28:38;98335.28;;;27.32
27826;BMP280;15077;49.704;9.908;2022-07-23T08:31:04;98337.72;;;27.34
27826;BMP280;15077;49.704;9.908;2022-07-23T08:33:31;98345.19;;;27.37
27826;BMP280;15077;49.704;9.908;2022-07-23T08:35:58;98338.06;;;27.38
27826;BMP280;15077;49.704;9.908;2022-07-23T08:38:24;98348.31;;;27.40
27826;BMP280;15077;49.704;9.908;2022-07-23T08:40:56;98354.00;;;27.43
27826;BMP280;15077;49.704;9.908;2022-07-23T08:43:28;98342.31;;;27.47
27826;BMP280;15077;49.704;9.908;2022-07-23T08:45:57;98348.03;;;27.51
27826;BMP280;15077;49.704;9.908;2022-07-23T08:48:33;98344.94;;;27.55
27826;BMP280;15077;49.704;9.908;2022-07-23T08:51:02;98335.00;;;27.59
27826;BMP280;15077;49.704;9.908;2022-07-23T08:53:30;98344.13;;;27.63
27826;BMP280;15077;49.704;9.908;2022-07-23T08:56:01;98335.19;;;27.65
27826;BMP280;15077;49.704;9.908;2022-07-23T08:58:27;98337.31;;;27.70
27826;BMP280;15077;49.704;9.908;2022-07-23T09:00:54;98330.81;;;27.74
27826;BMP280;15077;49.704;9.908;2022-07-23T09:03:21;98340.75;;;27.78
27826;BMP280;15077;49.704;9.908;2022-07-23T09:05:51;98330.47;;;27.85
27826;BMP280;15077;49.704;9.908;2022-07-23T09:08:20;98333.41;;;27.89
27826;BMP280;15077;49.704;9.908;2022-07-23T09:11:03;98334.56;;;27.95
27826;BMP280;15077;49.704;9.908;2022-07-23T09:16:30;98349.06;;;27.97
27826;BMP280;15077;49.704;9.908;2022-07-23T09:19:02;98344.97;;;28.03
27826;BMP280;15077;49.704;9.908;2022-07-23T09:21:39;98347.22;;;28.06
27826;BMP280;15077;49.704;9.908;2022-07-23T09:24:09;98346.47;;;28.13
27826;BMP280;15077;49.704;9.908;2022-07-23T09:26:47;98349.06;;;28.21
27826;BMP280;15077;49.704;9.908;2022-07-23T09:29:21;98336.84;;;28.30
27826;BMP280;15077;49.704;9.908;2022-07-23T09:32:01;98341.84;;;28.39
27826;BMP280;15077;49.704;9.908;2022-07-23T09:34:35;98343.47;;;28.48
27826;BMP280;15077;49.704;9.908;2022-07-23T09:37:19;98338.09;;;28.57
27826;BMP280;15077;49.704;9.908;2022-07-23T09:39:48;98344.44;;;28.71
27826;BMP280;15077;49.704;9.908;2022-07-23T09:42:25;98339.63;;;28.82
27826;BMP280;15077;49.704;9.908;2022-07-23T09:44:56;98333.06;;;28.94
27826;BMP280;15077;49.704;9.908;2022-07-23T09:47:27;98341.84;;;29.01
27826;BMP280;15077;49.704;9.908;2022-07-23T09:50:06;98325.34;;;29.08
27826;BMP280;15077;49.704;9.908;2022-07-23T09:52:48;98331.16;;;29.18
27826;BMP280;15077;49.704;9.908;2022-07-23T09:55:18;98333.56;;;29.28
27826;BMP280;15077;49.704;9.908;2022-07-23T09:57:46;98331.91;;;29.35
27826;BMP280;15077;49.704;9.908;2022-07-23T10:00:15;98334.47;;;29.42
27826;BMP280;15077;49.704;9.908;2022-07-23T10:02:45;98322.66;;;29.54
27826;BMP280;15077;49.704;9.908;2022-07-23T10:05:12;98316.03;;;29.66
27826;BMP280;15077;49.704;9.908;2022-07-23T10:07:40;98313.78;;;29.78
27826;BMP280;15077;49.704;9.908;2022-07-23T10:10:08;98318.16;;;29.85
27826;BMP280;15077;49.704;9.908;2022-07-23T10:12:36;98318.13;;;29.93
27826;BMP280;15077;49.704;9.908;2022-07-23T10:15:03;98322.66;;;29.99
27826;BMP280;15077;49.704;9.908;2022-07-23T10:17:30;98323.56;;;30.06
27826;BMP280;15077;49.704;9.908;2022-07-23T10:19:56;98323.03;;;30.10
27826;BMP280;15077;49.704;9.908;2022-07-23T10:22:33;98317.91;;;30.17
27826;BMP280;15077;49.704;9.908;2022-07-23T10:25:45;98325.56;;;30.18
27826;BMP280;15077;49.704;9.908;2022-07-23T10:34:23;98328.34;;;30.53
27826;BMP280;15077;49.704;9.908;2022-07-23T10:37:34;98322.03;;;30.62
27826;BMP280;15077;49.704;9.908;2022-07-23T10:40:22;98317.59;;;30.77
27826;BMP280;15077;49.704;9.908;2022-07-23T10:42:58;98322.03;;;30.91
27826;BMP280;15077;49.704;9.908;2022-07-23T10:45:35;98317.31;;;31.01
27826;BMP280;15077;49.704;9.908;2022-07-23T10:48:17;98313.03;;;31.14
27826;BMP280;15077;49.704;9.908;2022-07-23T10:51:15;98314.19;;;31.26
27826;BMP280;15077;49.704;9.908;2022-07-23T10:59:24;98306.06;;;31.77
27826;BMP280;15077;49.704;9.908;2022-07-23T11:01:50;98315.69;;;31.91
27826;BMP280;15077;49.704;9.908;2022-07-23T11:04:16;98308.94;;;32.03
27826;BMP280;15077;49.704;9.908;2022-07-23T11:25:13;98318.34;;;32.79
27826;BMP280;15077;49.704;9.908;2022-07-23T11:27:42;98320.19;;;32.85
27826;BMP280;15077;49.704;9.908;2022-07-23T11:35:39;98319.47;;;33.04
27826;BMP280;15077;49.704;9.908;2022-07-23T11:38:19;98317.88;;;33.09
27826;BMP280;15077;49.704;9.908;2022-07-23T11:40:49;98317.28;;;33.14
27826;BMP280;15077;49.704;9.908;2022-07-23T11:43:17;98310.25;;;33.21
27826;BMP280;15077;49.704;9.908;2022-07-23T11:45:47;98317.53;;;33.25
27826;BMP280;15077;49.704;9.908;2022-07-23T11:48:27;98304.81;;;33.29
27826;BMP280;15077;49.704;9.908;2022-07-23T11:50:54;98314.72;;;33.33
27826;BMP280;15077;49.704;9.908;2022-07-23T11:53:33;98311.28;;;33.39
27826;BMP280;15077;49.704;9.908;2022-07-23T11:56:07;98301.84;;;33.44
27826;BMP280;15077;49.704;9.908;2022-07-23T11:58:34;98301.44;;;33.47
27826;BMP280;15077;49.704;9.908;2022-07-23T12:01:00;98299.00;;;33.52
27826;BMP280;15077;49.704;9.908;2022-07-23T12:03:26;98301.47;;;33.60
27826;BMP280;15077;49.704;9.908;2022-07-23T12:05:57;98300.25;;;33.69
27826;BMP280;15077;49.704;9.908;2022-07-23T12:08:24;98300.06;;;33.77
27826;BMP280;15077;49.704;9.908;2022-07-23T12:10:50;98282.47;;;33.84
27826;BMP280;15077;49.704;9.908;2022-07-23T12:13:20;98295.59;;;33.90
27826;BMP280;15077;49.704;9.908;2022-07-23T12:15:51;98298.69;;;33.94
27826;BMP280;15077;49.704;9.908;2022-07-23T12:18:23;98285.13;;;33.97
27826;BMP280;15077;49.704;9.908;2022-07-23T12:20:54;98290.59;;;34.02
27826;BMP280;15077;49.704;9.908;2022-07-23T12:23:22;98282.88;;;34.07
27826;BMP280;15077;49.704;9.908;2022-07-23T12:25:50;98284.50;;;34.08
27826;BMP280;15077;49.704;9.908;2022-07-23T12:28:27;98282.50;;;34.10
27826;BMP280;15077;49.704;9.908;2022-07-23T12:30:55;98285.13;;;34.10
27826;BMP280;15077;49.704;9.908;2022-07-23T12:33:31;98284.72;;;34.13
27826;BMP280;15077;49.704;9.908;2022-07-23T12:36:08;98272.38;;;34.13
27826;BMP280;15077;49.704;9.908;2022-07-23T12:38:48;98276.41;;;34.16
27826;BMP280;15077;49.704;9.908;2022-07-23T12:41:15;98273.38;;;34.19
27826;BMP280;15077;49.704;9.908;2022-07-23T12:43:44;98273.78;;;34.22
27826;BMP280;15077;49.704;9.908;2022-07-23T12:46:19;98264.47;;;34.26
27826;BMP280;15077;49.704;9.908;2022-07-23T12:51:30;98265.44;;;34.32
27826;BMP280;15077;49.704;9.908;2022-07-23T12:54:06;98267.66;;;34.35
27826;BMP280;15077;49.704;9.908;2022-07-23T12:56:36;98259.75;;;34.35
27826;BMP280;15077;49.704;9.908;2022-07-23T12:59:13;98265.84;;;34.35
27826;BMP280;15077;49.704;9.908;2022-07-23T13:01:54;98261.81;;;34.33
27826;BMP280;15077;49.704;9.908;2022-07-23T13:04:22;98265.03;;;34.35
27826;BMP280;15077;49.704;9.908;2022-07-23T13:06:51;98267.88;;;34.33
27826;BMP280;15077;49.704;9.908;2022-07-23T13:09:23;98270.69;;;34.32
27826;BMP280;15077;49.704;9.908;2022-07-23T13:11:50;98279.88;;;34.10
27826;BMP280;15077;49.704;9.908;2022-07-23T13:14:18;98289.34;;;34.24
27826;BMP280;15077;49.704;9.908;2022-07-23T13:16:45;98285.72;;;34.25
27826;BMP280;15077;49.704;9.908;2022-07-23T13:19:12;98286.50;;;34.25
27826;BMP280;15077;49.704;9.908;2022-07-23T13:21:40;98280.44;;;34.25
27826;BMP280;15077;49.704;9.908;2022-07-23T13:24:07;98290.56;;;34.28
27826;BMP280;15077;49.704;9.908;2022-07-23T13:26:33;98286.91;;;34.29
27826;BMP280;15077;49.704;9.908;2022-07-23T13:28:59;98283.47;;;34.28
27826;BMP280;15077;49.704;9.908;2022-07-23T13:31:26;98291.38;;;34.28
27826;BMP280;15077;49.704;9.908;2022-07-23T13:33:52;98272.75;;;34.30
27826;BMP280;15077;49.704;9.908;2022-07-23T13:36:17;98272.13;;;34.34
27826;BMP280;15077;49.704;9.908;2022-07-23T13:38:43;98283.66;;;34.39
27826;BMP280;15077;49.704;9.908;2022-07-23T13:41:09;98285.69;;;34.44
27826;BMP280;15077;49.704;9.908;2022-07-23T13:43:35;98283.88;;;34.44
27826;BMP280;15077;49.704;9.908;2022-07-23T13:46:01;98282.88;;;34.45
27826;BMP280;15077;49.704;9.908;2022-07-23T13:48:27;98285.69;;;34.50
27826;BMP280;15077;49.704;9.908;2022-07-23T13:50:55;98292.56;;;34.51
27826;BMP280;15077;49.704;9.908;2022-07-23T13:53:23;98288.47;;;34.55
27826;BMP280;15077;49.704;9.908;2022-07-23T13:55:51;98286.88;;;34.54
27826;BMP280;15077;49.704;9.908;2022-07-23T13:58:18;98284.84;;;34.56
27826;BMP280;15077;49.704;9.908;2022-07-23T14:00:48;98287.06;;;34.59
27826;BMP280;15077;49.704;9.908;2022-07-23T14:03:16;98284.03;;;34.62
27826;BMP280;15077;49.704;9.908;2022-07-23T14:05:42;98278.34;;;34.65
27826;BMP280;15077;49.704;9.908;2022-07-23T14:08:08;98285.22;;;34.66
27826;BMP280;15077;49.704;9.908;2022-07-23T14:10:34;98282.59;;;34.66
27826;BMP280;15077;49.704;9.908;2022-07-23T14:13:00;98278.34;;;34.65
27826;BMP280;15077;49.704;9.908;2022-07-23T14:15:29;98292.75;;;34.63
27826;BMP280;15077;49.704;9.908;2022-07-23T14:17:56;98292.97;;;34.61
27826;BMP280;15077;49.704;9.908;2022-07-23T14:20:22;98298.63;;;34.58
27826;BMP280;15077;49.704;9.908;2022-07-23T14:22:48;98299.00;;;34.55
27826;BMP280;15077;49.704;9.908;2022-07-23T14:25:15;98294.16;;;34.52
27826;BMP280;15077;49.704;9.908;2022-07-23T14:27:41;98292.16;;;34.48
27826;BMP280;15077;49.704;9.908;2022-07-23T14:30:09;98298.66;;;34.45
27826;BMP280;15077;49.704;9.908;2022-07-23T14:32:36;98295.59;;;34.42
27826;BMP280;15077;49.704;9.908;2022-07-23T14:35:03;98294.59;;;34.37
27826;BMP280;15077;49.704;9.908;2022-07-23T14:37:29;98298.06;;;34.31
27826;BMP280;15077;49.704;9.908;2022-07-23T14:39:55;98303.09;;;34.26
27826;BMP280;15077;49.704;9.908;2022-07-23T14:42:20;98292.59;;;34.19
27826;BMP280;15077;49.704;9.908;2022-07-23T14:44:46;98291.38;;;34.15
27826;BMP280;15077;49.704;9.908;2022-07-23T14:47:12;98283.31;;;34.10
27826;BMP280;15077;49.704;9.908;2022-07-23T14:49:38;98289.56;;;34.09
27826;BMP280;15077;49.704;9.908;2022-07-23T14:52:06;98283.72;;;34.07
27826;BMP280;15077;49.704;9.908;2022-07-23T14:54:32;98288.75;;;34.09